sensor_id;sensor_type;location;lat;lon;timestamp;P1;durP1;ratioP1;P2;durP2;ratioP2
35496;SDS011;21609;49.298;6.844;2023-03-01T00:01:55;1.67;;;1.50;;
35496;SDS011;21609;49.298;6.844;2023-03-01T00:04:20;2.75;;;2.40;;
35496;SDS011;21609;49.298;6.844;2023-03-01T00:06:46;1.40;;;1.30;;
35496;SDS011;21609;49.298;6.844;2023-03-01T00:09:13;2.45;;;2.22;;
35496;SDS011;21609;49.298;6.844;2023-03-01T00:11:39;1.73;;;1.45;;
35496;SDS011;21609;49.298;6.844;2023-03-01T00:14:05;1.95;;;1.70;;
35496;SDS011;21609;49.298;6.844;2023-03-01T00:16:32;1.40;;;1.30;;
35496;SDS011;21609;49.298;6.844;2023-03-01T00:19:00;2.65;;;2.30;;
35496;SDS011;21609;49.298;6.844;2023-03-01T00:21:26;1.50;;;1.40;;
35496;SDS011;21609;49.298;6.844;2023-03-01T00:23:52;2.70;;;2.25;;
35496;SDS011;21609;49.298;6.844;2023-03-01T00:26:19;1.73;;;1.63;;
35496;SDS011;21609;49.298;6.844;2023-03-01T00:28:46;3.50;;;2.33;;
35496;SDS011;21609;49.298;6.844;2023-03-01T00:31:15;1.48;;;1.38;;
35496;SDS011;21609;49.298;6.844;2023-03-01T00:33:44;2.65;;;1.90;;
35496;SDS011;21609;49.298;6.844;2023-03-01T00:36:11;2.08;;;1.58;;
35496;SDS011;21609;49.298;6.844;2023-03-01T00:38:39;3.83;;;2.28;;
35496;SDS011;21609;49.298;6.844;2023-03-01T00:41:07;1.75;;;1.65;;
35496;SDS011;21609;49.298;6.844;2023-03-01T00:43:34;2.33;;;1.85;;
35496;SDS011;21609;49.298;6.844;2023-03-01T00:46:05;1.50;;;1.40;;
35496;SDS011;21609;49.298;6.844;2023-03-01T00:48:32;1.40;;;1.27;;
35496;SDS011;21609;49.298;6.844;2023-03-01T00:51:08;3.00;;;2.25;;
35496;SDS011;21609;49.298;6.844;2023-03-01T00:53:41;1.55;;;1.42;;
35496;SDS011;21609;49.298;6.844;2023-03-01T00:56:09;2.38;;;1.90;;
35496;SDS011;21609;49.298;6.844;2023-03-01T00:58:35;1.40;;;1.13;;
35496;SDS011;21609;49.298;6.844;2023-03-01T01:01:06;2.22;;;2.03;;
35496;SDS011;21609;49.298;6.844;2023-03-01T01:06:19;2.28;;;2.10;;
35496;SDS011;21609;49.298;6.844;2023-03-01T01:08:46;2.47;;;1.98;;
35496;SDS011;21609;49.298;6.844;2023-03-01T01:11:12;1.55;;;1.35;;
35496;SDS011;21609;49.298;6.844;2023-03-01T01:13:38;2.58;;;2.33;;
35496;SDS011;21609;49.298;6.844;2023-03-01T01:16:05;1.63;;;1.52;;
35496;SDS011;21609;49.298;6.844;2023-03-01T01:18:31;1.25;;;1.10;;
35496;SDS011;21609;49.298;6.844;2023-03-01T01:20:56;2.80;;;2.20;;
35496;SDS011;21609;49.298;6.844;2023-03-01T01:23:22;2.45;;;2.25;;
35496;SDS011;21609;49.298;6.844;2023-03-01T01:25:48;1.80;;;1.63;;
35496;SDS011;21609;49.298;6.844;2023-03-01T01:28:13;1.63;;;1.52;;
35496;SDS011;21609;49.298;6.844;2023-03-01T01:30:39;2.22;;;2.00;;
35496;SDS011;21609;49.298;6.844;2023-03-01T01:33:05;1.45;;;1.35;;
35496;SDS011;21609;49.298;6.844;2023-03-01T01:35:30;2.80;;;1.98;;
35496;SDS011;21609;49.298;6.844;2023-03-01T01:37:56;1.50;;;1.40;;
35496;SDS011;21609;49.298;6.844;2023-03-01T01:40:21;2.40;;;2.20;;
35496;SDS011;21609;49.298;6.844;2023-03-01T01:42:47;1.15;;;1.05;;
35496;SDS011;21609;49.298;6.844;2023-03-01T01:45:34;2.65;;;1.85;;
35496;SDS011;21609;49.298;6.844;2023-03-01T01:48:03;1.85;;;1.73;;
35496;SDS011;21609;49.298;6.844;2023-03-01T01:53:03;2.20;;;2.00;;
35496;SDS011;21609;49.298;6.844;2023-03-01T01:55:31;2.00;;;1.80;;
35496;SDS011;21609;49.298;6.844;2023-03-01T01:57:58;2.47;;;2.08;;
35496;SDS011;21609;49.298;6.844;2023-03-01T02:00:28;1.58;;;1.30;;
35496;SDS011;21609;49.298;6.844;2023-03-01T02:02:58;2.05;;;1.85;;
35496;SDS011;21609;49.298;6.844;2023-03-01T02:08:14;2.70;;;2.10;;
35496;SDS011;21609;49.298;6.844;2023-03-01T02:10:43;1.73;;;1.63;;
35496;SDS011;21609;49.298;6.844;2023-03-01T02:13:10;1.95;;;1.67;;
35496;SDS011;21609;49.298;6.844;2023-03-01T02:15:36;1.85;;;1.75;;
35496;SDS011;21609;49.298;6.844;2023-03-01T02:18:04;1.33;;;1.02;;
35496;SDS011;21609;49.298;6.844;2023-03-01T02:21:14;2.20;;;2.00;;
35496;SDS011;21609;49.298;6.844;2023-03-01T02:23:38;2.13;;;1.92;;
35496;SDS011;21609;49.298;6.844;2023-03-01T02:28:49;1.95;;;1.75;;
35496;SDS011;21609;49.298;6.844;2023-03-01T02:31:16;1.95;;;1.70;;
35496;SDS011;21609;49.298;6.844;2023-03-01T02:34:03;2.22;;;1.75;;
35496;SDS011;21609;49.298;6.844;2023-03-01T02:36:36;1.85;;;1.52;;
35496;SDS011;21609;49.298;6.844;2023-03-01T02:39:22;3.28;;;2.38;;
35496;SDS011;21609;49.298;6.844;2023-03-01T02:41:58;1.38;;;1.27;;
35496;SDS011;21609;49.298;6.844;2023-03-01T02:44:25;1.95;;;1.80;;
35496;SDS011;21609;49.298;6.844;2023-03-01T02:46:51;1.48;;;1.38;;
35496;SDS011;21609;49.298;6.844;2023-03-01T02:49:37;2.65;;;1.98;;
35496;SDS011;21609;49.298;6.844;2023-03-01T02:55:15;1.50;;;1.40;;
35496;SDS011;21609;49.298;6.844;2023-03-01T02:57:43;3.08;;;1.25;;
35496;SDS011;21609;49.298;6.844;2023-03-01T03:00:11;2.10;;;1.90;;
35496;SDS011;21609;49.298;6.844;2023-03-01T03:02:44;1.88;;;1.73;;
35496;SDS011;21609;49.298;6.844;2023-03-01T03:05:13;1.90;;;1.80;;
35496;SDS011;21609;49.298;6.844;2023-03-01T03:07:41;2.15;;;1.80;;
35496;SDS011;21609;49.298;6.844;2023-03-01T03:10:11;1.70;;;1.60;;
35496;SDS011;21609;49.298;6.844;2023-03-01T03:12:48;2.08;;;1.85;;
35496;SDS011;21609;49.298;6.844;2023-03-01T03:15:19;2.15;;;1.95;;
35496;SDS011;21609;49.298;6.844;2023-03-01T03:17:46;2.75;;;1.85;;
35496;SDS011;21609;49.298;6.844;2023-03-01T03:20:12;2.22;;;2.03;;
35496;SDS011;21609;49.298;6.844;2023-03-01T03:22:44;1.88;;;1.70;;
35496;SDS011;21609;49.298;6.844;2023-03-01T03:25:11;2.15;;;1.92;;
35496;SDS011;21609;49.298;6.844;2023-03-01T03:27:37;2.58;;;2.08;;
35496;SDS011;21609;49.298;6.844;2023-03-01T03:30:04;3.10;;;2.28;;
35496;SDS011;21609;49.298;6.844;2023-03-01T03:32:37;2.13;;;1.58;;
35496;SDS011;21609;49.298;6.844;2023-03-01T03:35:04;1.50;;;1.25;;
35496;SDS011;21609;49.298;6.844;2023-03-01T03:37:40;2.22;;;2.00;;
35496;SDS011;21609;49.298;6.844;2023-03-01T03:40:25;2.53;;;2.15;;
35496;SDS011;21609;49.298;6.844;2023-03-01T03:42:51;2.22;;;1.90;;
35496;SDS011;21609;49.298;6.844;2023-03-01T03:45:17;2.20;;;2.00;;
35496;SDS011;21609;49.298;6.844;2023-03-01T03:47:43;3.33;;;2.30;;
35496;SDS011;21609;49.298;6.844;2023-03-01T03:50:10;2.85;;;2.15;;
35496;SDS011;21609;49.298;6.844;2023-03-01T03:52:36;2.97;;;2.10;;
35496;SDS011;21609;49.298;6.844;2023-03-01T03:55:02;2.15;;;1.90;;
35496;SDS011;21609;49.298;6.844;2023-03-01T03:57:29;2.25;;;2.00;;
35496;SDS011;21609;49.298;6.844;2023-03-01T03:59:54;2.58;;;1.85;;
35496;SDS011;21609;49.298;6.844;2023-03-01T04:02:20;2.30;;;2.03;;
35496;SDS011;21609;49.298;6.844;2023-03-01T04:04:47;2.50;;;1.98;;
35496;SDS011;21609;49.298;6.844;2023-03-01T04:07:14;2.05;;;1.75;;
35496;SDS011;21609;49.298;6.844;2023-03-01T04:09:41;2.17;;;1.98;;
35496;SDS011;21609;49.298;6.844;2023-03-01T04:12:08;1.95;;;1.00;;
35496;SDS011;21609;49.298;6.844;2023-03-01T04:14:34;2.33;;;2.10;;
35496;SDS011;21609;49.298;6.844;2023-03-01T04:16:59;2.45;;;1.95;;
35496;SDS011;21609;49.298;6.844;2023-03-01T04:19:26;2.40;;;2.00;;
35496;SDS011;21609;49.298;6.844;2023-03-01T04:21:51;1.77;;;1.67;;
35496;SDS011;21609;49.298;6.844;2023-03-01T04:24:17;1.60;;;1.48;;
35496;SDS011;21609;49.298;6.844;2023-03-01T04:26:43;2.05;;;1.85;;
35496;SDS011;21609;49.298;6.844;2023-03-01T04:29:09;2.15;;;1.92;;
35496;SDS011;21609;49.298;6.844;2023-03-01T04:31:35;2.13;;;1.92;;
35496;SDS011;21609;49.298;6.844;2023-03-01T04:34:00;2.50;;;1.95;;
35496;SDS011;21609;49.298;6.844;2023-03-01T04:36:27;2.08;;;1.83;;
35496;SDS011;21609;49.298;6.844;2023-03-01T04:38:53;1.40;;;1.30;;
35496;SDS011;21609;49.298;6.844;2023-03-01T04:41:21;2.38;;;2.00;;
35496;SDS011;21609;49.298;6.844;2023-03-01T04:43:48;2.65;;;1.90;;
35496;SDS011;21609;49.298;6.844;2023-03-01T04:46:16;2.67;;;2.00;;
35496;SDS011;21609;49.298;6.844;2023-03-01T04:48:44;1.60;;;1.50;;
35496;SDS011;21609;49.298;6.844;2023-03-01T04:51:12;3.03;;;2.20;;
35496;SDS011;21609;49.298;6.844;2023-03-01T04:53:41;1.58;;;1.23;;
35496;SDS011;21609;49.298;6.844;2023-03-01T04:56:07;1.98;;;1.75;;
35496;SDS011;21609;49.298;6.844;2023-03-01T04:58:33;1.50;;;1.40;;
35496;SDS011;21609;49.298;6.844;2023-03-01T05:00:58;2.53;;;2.03;;
35496;SDS011;21609;49.298;6.844;2023-03-01T05:03:24;1.52;;;1.42;;
35496;SDS011;21609;49.298;6.844;2023-03-01T05:05:50;2.30;;;2.10;;
35496;SDS011;21609;49.298;6.844;2023-03-01T05:08:17;2.42;;;2.22;;
35496;SDS011;21609;49.298;6.844;2023-03-01T05:10:48;2.53;;;2.15;;
35496;SDS011;21609;49.298;6.844;2023-03-01T05:13:15;1.95;;;1.85;;
35496;SDS011;21609;49.298;6.844;2023-03-01T05:15:46;1.25;;;1.15;;
35496;SDS011;21609;49.298;6.844;2023-03-01T05:18:23;2.28;;;1.90;;
35496;SDS011;21609;49.298;6.844;2023-03-01T05:20:53;1.50;;;1.20;;
35496;SDS011;21609;49.298;6.844;2023-03-01T05:23:21;2.55;;;2.08;;
35496;SDS011;21609;49.298;6.844;2023-03-01T05:25:49;2.13;;;1.92;;
35496;SDS011;21609;49.298;6.844;2023-03-01T05:28:17;3.40;;;2.10;;
35496;SDS011;21609;49.298;6.844;2023-03-01T05:30:44;2.42;;;2.22;;
35496;SDS011;21609;49.298;6.844;2023-03-01T05:33:11;2.35;;;2.05;;
35496;SDS011;21609;49.298;6.844;2023-03-01T05:35:41;2.40;;;2.10;;
35496;SDS011;21609;49.298;6.844;2023-03-01T05:38:08;2.13;;;1.80;;
35496;SDS011;21609;49.298;6.844;2023-03-01T05:40:38;2.15;;;1.70;;
35496;SDS011;21609;49.298;6.844;2023-03-01T05:43:03;2.85;;;1.88;;
35496;SDS011;21609;49.298;6.844;2023-03-01T05:45:30;2.75;;;2.45;;
35496;SDS011;21609;49.298;6.844;2023-03-01T05:47:57;2.10;;;1.83;;
35496;SDS011;21609;49.298;6.844;2023-03-01T05:50:27;2.38;;;2.17;;
35496;SDS011;21609;49.298;6.844;2023-03-01T05:55:24;2.65;;;2.45;;
35496;SDS011;21609;49.298;6.844;2023-03-01T05:57:49;2.10;;;1.85;;
35496;SDS011;21609;49.298;6.844;2023-03-01T06:00:16;2.40;;;1.95;;
35496;SDS011;21609;49.298;6.844;2023-03-01T06:02:44;1.95;;;1.75;;
35496;SDS011;21609;49.298;6.844;2023-03-01T06:05:10;2.58;;;1.95;;
35496;SDS011;21609;49.298;6.844;2023-03-01T06:07:37;2.58;;;2.38;;
35496;SDS011;21609;49.298;6.844;2023-03-01T06:10:03;2.30;;;2.10;;
35496;SDS011;21609;49.298;6.844;2023-03-01T06:12:31;2.53;;;2.17;;
35496;SDS011;21609;49.298;6.844;2023-03-01T06:14:57;2.35;;;2.15;;
35496;SDS011;21609;49.298;6.844;2023-03-01T06:17:23;2.78;;;2.13;;
35496;SDS011;21609;49.298;6.844;2023-03-01T06:19:49;3.85;;;2.42;;
35496;SDS011;21609;49.298;6.844;2023-03-01T06:22:14;2.72;;;1.95;;
35496;SDS011;21609;49.298;6.844;2023-03-01T06:24:40;2.75;;;2.00;;
35496;SDS011;21609;49.298;6.844;2023-03-01T06:27:05;6.20;;;2.20;;
35496;SDS011;21609;49.298;6.844;2023-03-01T06:29:31;2.67;;;1.80;;
35496;SDS011;21609;49.298;6.844;2023-03-01T06:31:56;2.28;;;2.08;;
35496;SDS011;21609;49.298;6.844;2023-03-01T06:34:22;2.70;;;2.25;;
35496;SDS011;21609;49.298;6.844;2023-03-01T06:36:48;4.13;;;2.72;;
35496;SDS011;21609;49.298;6.844;2023-03-01T06:39:13;4.90;;;2.20;;
35496;SDS011;21609;49.298;6.844;2023-03-01T06:41:39;2.72;;;2.30;;
35496;SDS011;21609;49.298;6.844;2023-03-01T06:44:04;2.95;;;2.35;;
35496;SDS011;21609;49.298;6.844;2023-03-01T06:46:30;4.38;;;2.80;;
35496;SDS011;21609;49.298;6.844;2023-03-01T06:48:55;2.35;;;2.15;;
35496;SDS011;21609;49.298;6.844;2023-03-01T06:51:21;2.90;;;2.40;;
35496;SDS011;21609;49.298;6.844;2023-03-01T06:53:46;2.78;;;2.45;;
35496;SDS011;21609;49.298;6.844;2023-03-01T06:56:12;3.10;;;2.28;;
35496;SDS011;21609;49.298;6.844;2023-03-01T06:58:37;3.22;;;2.50;;
35496;SDS011;21609;49.298;6.844;2023-03-01T07:01:06;2.13;;;1.98;;
35496;SDS011;21609;49.298;6.844;2023-03-01T07:03:33;3.92;;;2.17;;
35496;SDS011;21609;49.298;6.844;2023-03-01T07:05:59;2.42;;;2.10;;
35496;SDS011;21609;49.298;6.844;2023-03-01T07:08:24;2.47;;;2.00;;
35496;SDS011;21609;49.298;6.844;2023-03-01T07:10:59;2.75;;;2.30;;
35496;SDS011;21609;49.298;6.844;2023-03-01T07:13:27;4.50;;;2.90;;
35496;SDS011;21609;49.298;6.844;2023-03-01T07:15:52;2.33;;;2.13;;
35496;SDS011;21609;49.298;6.844;2023-03-01T07:18:18;2.95;;;2.13;;
35496;SDS011;21609;49.298;6.844;2023-03-01T07:20:44;2.50;;;2.30;;
35496;SDS011;21609;49.298;6.844;2023-03-01T07:23:09;2.08;;;1.88;;
35496;SDS011;21609;49.298;6.844;2023-03-01T07:25:35;3.08;;;2.15;;
35496;SDS011;21609;49.298;6.844;2023-03-01T07:28:01;2.20;;;1.98;;
35496;SDS011;21609;49.298;6.844;2023-03-01T07:30:27;2.38;;;2.08;;
35496;SDS011;21609;49.298;6.844;2023-03-01T07:32:53;3.05;;;2.63;;
35496;SDS011;21609;49.298;6.844;2023-03-01T07:35:20;2.25;;;1.50;;
35496;SDS011;21609;49.298;6.844;2023-03-01T07:37:46;2.65;;;2.30;;
35496;SDS011;21609;49.298;6.844;2023-03-01T07:40:12;2.78;;;1.70;;
35496;SDS011;21609;49.298;6.844;2023-03-01T07:42:37;2.83;;;2.22;;
35496;SDS011;21609;49.298;6.844;2023-03-01T07:45:03;3.00;;;1.83;;
35496;SDS011;21609;49.298;6.844;2023-03-01T07:47:30;3.28;;;2.47;;
35496;SDS011;21609;49.298;6.844;2023-03-01T07:49:56;2.13;;;1.90;;
35496;SDS011;21609;49.298;6.844;2023-03-01T07:52:21;4.97;;;4.07;;
35496;SDS011;21609;49.298;6.844;2023-03-01T07:54:47;2.53;;;2.30;;
35496;SDS011;21609;49.298;6.844;2023-03-01T07:57:12;4.50;;;3.33;;
35496;SDS011;21609;49.298;6.844;2023-03-01T07:59:38;3.95;;;2.28;;
35496;SDS011;21609;49.298;6.844;2023-03-01T08:02:03;3.22;;;2.85;;
35496;SDS011;21609;49.298;6.844;2023-03-01T08:04:29;3.33;;;2.88;;
35496;SDS011;21609;49.298;6.844;2023-03-01T08:06:54;2.35;;;2.10;;
35496;SDS011;21609;49.298;6.844;2023-03-01T08:09:20;5.05;;;2.92;;
35496;SDS011;21609;49.298;6.844;2023-03-01T08:11:46;3.22;;;2.92;;
35496;SDS011;21609;49.298;6.844;2023-03-01T08:14:12;4.47;;;2.83;;
35496;SDS011;21609;49.298;6.844;2023-03-01T08:16:38;2.85;;;2.65;;
35496;SDS011;21609;49.298;6.844;2023-03-01T08:19:07;2.63;;;2.42;;
35496;SDS011;21609;49.298;6.844;2023-03-01T08:21:34;3.63;;;3.08;;
35496;SDS011;21609;49.298;6.844;2023-03-01T08:24:01;2.92;;;2.63;;
35496;SDS011;21609;49.298;6.844;2023-03-01T08:26:30;2.65;;;2.33;;
35496;SDS011;21609;49.298;6.844;2023-03-01T08:28:57;3.50;;;2.80;;
35496;SDS011;21609;49.298;6.844;2023-03-01T08:31:23;2.70;;;2.45;;
35496;SDS011;21609;49.298;6.844;2023-03-01T08:33:52;3.92;;;2.92;;
35496;SDS011;21609;49.298;6.844;2023-03-01T08:36:23;4.50;;;3.17;;
35496;SDS011;21609;49.298;6.844;2023-03-01T08:38:49;7.50;;;3.25;;
35496;SDS011;21609;49.298;6.844;2023-03-01T08:41:15;5.30;;;4.80;;
35496;SDS011;21609;49.298;6.844;2023-03-01T08:43:41;3.15;;;2.58;;
35496;SDS011;21609;49.298;6.844;2023-03-01T08:46:07;5.28;;;3.70;;
35496;SDS011;21609;49.298;6.844;2023-03-01T08:48:32;5.88;;;4.22;;
35496;SDS011;21609;49.298;6.844;2023-03-01T08:51:06;7.10;;;3.30;;
35496;SDS011;21609;49.298;6.844;2023-03-01T08:53:33;4.43;;;3.03;;
35496;SDS011;21609;49.298;6.844;2023-03-01T08:56:01;7.53;;;3.85;;
35496;SDS011;21609;49.298;6.844;2023-03-01T08:58:28;7.95;;;3.80;;
35496;SDS011;21609;49.298;6.844;2023-03-01T09:00:53;6.40;;;3.15;;
35496;SDS011;21609;49.298;6.844;2023-03-01T09:03:21;10.10;;;4.13;;
35496;SDS011;21609;49.298;6.844;2023-03-01T09:05:47;3.60;;;2.78;;
35496;SDS011;21609;49.298;6.844;2023-03-01T09:08:14;7.97;;;3.72;;
35496;SDS011;21609;49.298;6.844;2023-03-01T09:10:39;9.15;;;3.67;;
35496;SDS011;21609;49.298;6.844;2023-03-01T09:13:05;6.65;;;4.50;;
35496;SDS011;21609;49.298;6.844;2023-03-01T09:15:30;7.65;;;3.75;;
35496;SDS011;21609;49.298;6.844;2023-03-01T09:17:57;13.27;;;3.33;;
35496;SDS011;21609;49.298;6.844;2023-03-01T09:20:24;5.22;;;3.20;;
35496;SDS011;21609;49.298;6.844;2023-03-01T09:22:49;7.78;;;4.40;;
35496;SDS011;21609;49.298;6.844;2023-03-01T09:25:15;8.50;;;2.97;;
35496;SDS011;21609;49.298;6.844;2023-03-01T09:27:40;9.95;;;3.88;;
35496;SDS011;21609;49.298;6.844;2023-03-01T09:30:06;8.75;;;3.42;;
35496;SDS011;21609;49.298;6.844;2023-03-01T09:32:32;6.75;;;3.38;;
35496;SDS011;21609;49.298;6.844;2023-03-01T09:34:58;6.93;;;3.33;;
35496;SDS011;21609;49.298;6.844;2023-03-01T09:37:28;6.15;;;3.03;;
35496;SDS011;21609;49.298;6.844;2023-03-01T09:39:54;5.70;;;2.20;;
35496;SDS011;21609;49.298;6.844;2023-03-01T09:42:20;7.82;;;4.70;;
35496;SDS011;21609;49.298;6.844;2023-03-01T09:44:51;8.10;;;3.20;;
35496;SDS011;21609;49.298;6.844;2023-03-01T09:47:40;4.90;;;3.53;;
35496;SDS011;21609;49.298;6.844;2023-03-01T09:52:46;4.90;;;3.25;;
35496;SDS011;21609;49.298;6.844;2023-03-01T09:55:31;7.05;;;3.20;;
35496;SDS011;21609;49.298;6.844;2023-03-01T10:01:02;4.25;;;2.85;;
35496;SDS011;21609;49.298;6.844;2023-03-01T10:06:58;3.83;;;2.83;;
35496;SDS011;21609;49.298;6.844;2023-03-01T10:09:49;3.05;;;2.72;;
35496;SDS011;21609;49.298;6.844;2023-03-01T10:12:16;6.07;;;2.40;;
35496;SDS011;21609;49.298;6.844;2023-03-01T10:20:22;3.53;;;2.80;;
35496;SDS011;21609;49.298;6.844;2023-03-01T10:22:48;3.08;;;2.72;;
35496;SDS011;21609;49.298;6.844;2023-03-01T10:28:10;4.65;;;2.78;;
35496;SDS011;21609;49.298;6.844;2023-03-01T10:33:29;5.97;;;3.20;;
35496;SDS011;21609;49.298;6.844;2023-03-01T10:35:59;6.97;;;2.40;;
35496;SDS011;21609;49.298;6.844;2023-03-01T10:38:24;3.22;;;2.63;;
35496;SDS011;21609;49.298;6.844;2023-03-01T10:43:52;3.55;;;2.72;;
35496;SDS011;21609;49.298;6.844;2023-03-01T10:49:05;3.92;;;3.05;;
35496;SDS011;21609;49.298;6.844;2023-03-01T10:51:38;3.25;;;2.78;;
35496;SDS011;21609;49.298;6.844;2023-03-01T10:54:06;5.68;;;2.80;;
35496;SDS011;21609;49.298;6.844;2023-03-01T10:57:02;3.35;;;2.72;;
35496;SDS011;21609;49.298;6.844;2023-03-01T11:02:15;4.35;;;2.78;;
35496;SDS011;21609;49.298;6.844;2023-03-01T11:04:58;3.17;;;2.88;;
35496;SDS011;21609;49.298;6.844;2023-03-01T11:07:26;5.88;;;3.70;;
35496;SDS011;21609;49.298;6.844;2023-03-01T11:09:52;4.95;;;3.75;;
35496;SDS011;21609;49.298;6.844;2023-03-01T11:12:18;7.78;;;3.58;;
35496;SDS011;21609;49.298;6.844;2023-03-01T11:14:46;3.72;;;3.25;;
35496;SDS011;21609;49.298;6.844;2023-03-01T11:17:18;5.20;;;3.55;;
35496;SDS011;21609;49.298;6.844;2023-03-01T11:20:01;4.38;;;3.53;;
35496;SDS011;21609;49.298;6.844;2023-03-01T11:22:45;5.40;;;4.15;;
35496;SDS011;21609;49.298;6.844;2023-03-01T11:25:15;8.50;;;3.85;;
35496;SDS011;21609;49.298;6.844;2023-03-01T11:27:44;4.70;;;3.65;;
35496;SDS011;21609;49.298;6.844;2023-03-01T11:32:57;7.45;;;4.43;;
35496;SDS011;21609;49.298;6.844;2023-03-01T11:35:30;4.60;;;3.95;;
35496;SDS011;21609;49.298;6.844;2023-03-01T11:40:50;7.03;;;4.15;;
35496;SDS011;21609;49.298;6.844;2023-03-01T11:46:49;10.43;;;6.03;;
35496;SDS011;21609;49.298;6.844;2023-03-01T11:54:11;6.75;;;5.15;;
35496;SDS011;21609;49.298;6.844;2023-03-01T11:59:30;12.43;;;5.57;;
35496;SDS011;21609;49.298;6.844;2023-03-01T12:15:51;15.00;;;5.63;;
35496;SDS011;21609;49.298;6.844;2023-03-01T12:24:29;12.68;;;5.50;;
35496;SDS011;21609;49.298;6.844;2023-03-01T12:29:38;11.27;;;4.97;;
35496;SDS011;21609;49.298;6.844;2023-03-01T12:32:13;12.70;;;5.20;;
35496;SDS011;21609;49.298;6.844;2023-03-01T12:40:38;6.22;;;4.82;;
35496;SDS011;21609;49.298;6.844;2023-03-01T12:43:47;8.98;;;4.88;;
35496;SDS011;21609;49.298;6.844;2023-03-01T12:46:31;6.28;;;5.03;;
35496;SDS011;21609;49.298;6.844;2023-03-01T12:49:18;11.60;;;4.20;;
35496;SDS011;21609;49.298;6.844;2023-03-01T12:51:54;5.40;;;4.22;;
35496;SDS011;21609;49.298;6.844;2023-03-01T12:54:27;6.90;;;5.20;;
35496;SDS011;21609;49.298;6.844;2023-03-01T12:56:55;5.30;;;4.43;;
35496;SDS011;21609;49.298;6.844;2023-03-01T13:02:15;5.07;;;4.30;;
35496;SDS011;21609;49.298;6.844;2023-03-01T13:10:06;7.43;;;4.70;;
35496;SDS011;21609;49.298;6.844;2023-03-01T13:20:49;8.10;;;4.40;;
35496;SDS011;21609;49.298;6.844;2023-03-01T13:28:35;5.75;;;4.53;;
35496;SDS011;21609;49.298;6.844;2023-03-01T13:33:53;6.43;;;4.18;;
35496;SDS011;21609;49.298;6.844;2023-03-01T13:52:40;4.35;;;3.95;;
35496;SDS011;21609;49.298;6.844;2023-03-01T13:55:17;3.53;;;3.25;;
35496;SDS011;21609;49.298;6.844;2023-03-01T13:57:47;6.82;;;3.72;;
35496;SDS011;21609;49.298;6.844;2023-03-01T14:00:32;4.65;;;3.97;;
35496;SDS011;21609;49.298;6.844;2023-03-01T14:03:13;4.25;;;3.78;;
35496;SDS011;21609;49.298;6.844;2023-03-01T14:05:42;4.68;;;4.10;;
35496;SDS011;21609;49.298;6.844;2023-03-01T14:08:22;4.47;;;3.88;;
35496;SDS011;21609;49.298;6.844;2023-03-01T14:13:44;6.40;;;4.28;;
35496;SDS011;21609;49.298;6.844;2023-03-01T14:19:16;4.32;;;3.90;;
35496;SDS011;21609;49.298;6.844;2023-03-01T14:21:45;5.65;;;3.60;;
35496;SDS011;21609;49.298;6.844;2023-03-01T14:24:20;4.55;;;4.03;;
35496;SDS011;21609;49.298;6.844;2023-03-01T14:26:47;4.57;;;3.85;;
35496;SDS011;21609;49.298;6.844;2023-03-01T14:29:27;4.10;;;3.70;;
35496;SDS011;21609;49.298;6.844;2023-03-01T14:34:38;4.05;;;3.53;;
35496;SDS011;21609;49.298;6.844;2023-03-01T14:37:17;4.40;;;4.00;;
35496;SDS011;21609;49.298;6.844;2023-03-01T14:42:14;5.32;;;4.63;;
35496;SDS011;21609;49.298;6.844;2023-03-01T14:44:41;4.82;;;4.25;;
35496;SDS011;21609;49.298;6.844;2023-03-01T14:47:11;5.03;;;4.53;;
35496;SDS011;21609;49.298;6.844;2023-03-01T14:49:40;4.95;;;4.25;;
35496;SDS011;21609;49.298;6.844;2023-03-01T14:52:17;7.55;;;4.22;;
35496;SDS011;21609;49.298;6.844;2023-03-01T14:54:46;4.82;;;4.07;;
35496;SDS011;21609;49.298;6.844;2023-03-01T14:57:15;5.10;;;3.88;;
35496;SDS011;21609;49.298;6.844;2023-03-01T14:59:43;5.18;;;4.22;;
35496;SDS011;21609;49.298;6.844;2023-03-01T15:02:17;6.90;;;4.72;;
35496;SDS011;21609;49.298;6.844;2023-03-01T15:04:45;4.57;;;4.18;;
35496;SDS011;21609;49.298;6.844;2023-03-01T15:07:13;12.30;;;4.60;;
35496;SDS011;21609;49.298;6.844;2023-03-01T15:09:39;5.22;;;3.95;;
35496;SDS011;21609;49.298;6.844;2023-03-01T15:17:55;4.07;;;3.75;;
35496;SDS011;21609;49.298;6.844;2023-03-01T15:20:24;6.75;;;4.35;;
35496;SDS011;21609;49.298;6.844;2023-03-01T15:22:52;4.55;;;4.13;;
35496;SDS011;21609;49.298;6.844;2023-03-01T15:25:20;5.90;;;4.35;;
35496;SDS011;21609;49.298;6.844;2023-03-01T15:27:48;4.03;;;3.55;;
35496;SDS011;21609;49.298;6.844;2023-03-01T15:35:52;4.57;;;4.00;;
35496;SDS011;21609;49.298;6.844;2023-03-01T15:40:50;4.22;;;3.80;;
35496;SDS011;21609;49.298;6.844;2023-03-01T15:46:05;5.00;;;4.47;;
35496;SDS011;21609;49.298;6.844;2023-03-01T15:48:46;6.45;;;4.05;;
35496;SDS011;21609;49.298;6.844;2023-03-01T15:51:14;4.95;;;4.45;;
35496;SDS011;21609;49.298;6.844;2023-03-01T15:53:41;5.28;;;4.30;;
35496;SDS011;21609;49.298;6.844;2023-03-01T15:56:10;4.18;;;3.78;;
35496;SDS011;21609;49.298;6.844;2023-03-01T15:58:35;3.85;;;3.55;;
35496;SDS011;21609;49.298;6.844;2023-03-01T16:01:01;4.75;;;3.95;;
35496;SDS011;21609;49.298;6.844;2023-03-01T16:03:26;4.45;;;4.03;;
35496;SDS011;21609;49.298;6.844;2023-03-01T16:05:53;4.63;;;4.22;;
35496;SDS011;21609;49.298;6.844;2023-03-01T16:08:18;5.05;;;4.28;;
35496;SDS011;21609;49.298;6.844;2023-03-01T16:10:44;9.55;;;4.55;;
35496;SDS011;21609;49.298;6.844;2023-03-01T16:13:11;4.40;;;3.80;;
35496;SDS011;21609;49.298;6.844;2023-03-01T16:15:37;3.72;;;3.42;;
35496;SDS011;21609;49.298;6.844;2023-03-01T16:18:04;4.47;;;4.07;;
35496;SDS011;21609;49.298;6.844;2023-03-01T16:20:31;4.85;;;4.35;;
35496;SDS011;21609;49.298;6.844;2023-03-01T16:22:57;3.88;;;3.53;;
35496;SDS011;21609;49.298;6.844;2023-03-01T16:25:25;7.63;;;4.00;;
35496;SDS011;21609;49.298;6.844;2023-03-01T16:27:51;4.65;;;4.25;;
35496;SDS011;21609;49.298;6.844;2023-03-01T16:30:20;6.22;;;4.15;;
35496;SDS011;21609;49.298;6.844;2023-03-01T16:32:47;7.32;;;3.83;;
35496;SDS011;21609;49.298;6.844;2023-03-01T16:35:14;4.03;;;3.60;;
35496;SDS011;21609;49.298;6.844;2023-03-01T16:37:41;4.30;;;3.45;;
35496;SDS011;21609;49.298;6.844;2023-03-01T16:40:15;4.65;;;4.25;;
35496;SDS011;21609;49.298;6.844;2023-03-01T16:42:42;5.30;;;4.22;;
35496;SDS011;21609;49.298;6.844;2023-03-01T16:45:08;4.05;;;3.65;;
35496;SDS011;21609;49.298;6.844;2023-03-01T16:47:34;4.32;;;3.92;;
35496;SDS011;21609;49.298;6.844;2023-03-01T16:50:00;4.60;;;4.03;;
35496;SDS011;21609;49.298;6.844;2023-03-01T16:52:26;4.43;;;3.97;;
35496;SDS011;21609;49.298;6.844;2023-03-01T16:54:51;4.30;;;3.90;;
35496;SDS011;21609;49.298;6.844;2023-03-01T16:57:17;4.10;;;3.60;;
35496;SDS011;21609;49.298;6.844;2023-03-01T16:59:43;7.63;;;5.25;;
35496;SDS011;21609;49.298;6.844;2023-03-01T17:02:10;3.88;;;3.58;;
35496;SDS011;21609;49.298;6.844;2023-03-01T17:04:37;4.18;;;3.78;;
35496;SDS011;21609;49.298;6.844;2023-03-01T17:07:03;4.03;;;3.63;;
35496;SDS011;21609;49.298;6.844;2023-03-01T17:09:29;3.50;;;3.20;;
35496;SDS011;21609;49.298;6.844;2023-03-01T17:11:54;3.83;;;3.53;;
35496;SDS011;21609;49.298;6.844;2023-03-01T17:14:20;4.78;;;3.50;;
35496;SDS011;21609;49.298;6.844;2023-03-01T17:16:46;3.72;;;3.28;;
35496;SDS011;21609;49.298;6.844;2023-03-01T17:19:11;3.90;;;3.55;;
35496;SDS011;21609;49.298;6.844;2023-03-01T17:21:42;3.47;;;3.17;;
35496;SDS011;21609;49.298;6.844;2023-03-01T17:24:08;4.70;;;4.25;;
35496;SDS011;21609;49.298;6.844;2023-03-01T17:26:34;5.38;;;3.88;;
35496;SDS011;21609;49.298;6.844;2023-03-01T17:29:00;4.00;;;3.60;;
35496;SDS011;21609;49.298;6.844;2023-03-01T17:31:26;6.53;;;3.97;;
35496;SDS011;21609;49.298;6.844;2023-03-01T17:33:51;4.38;;;3.42;;
35496;SDS011;21609;49.298;6.844;2023-03-01T17:36:17;3.85;;;3.50;;